createdAt,value
2023-04-11T00:00:20.834Z,6.90
2023-04-11T00:02:49.519Z,6.50
2023-04-11T00:05:18.111Z,6.97
2023-04-11T00:07:46.701Z,7.73
2023-04-11T00:10:15.520Z,6.60
2023-04-11T00:12:44.119Z,6.17
2023-04-11T00:15:12.897Z,6.30
2023-04-11T00:17:45.762Z,5.90
2023-04-11T00:20:14.845Z,6.43
2023-04-11T00:22:43.898Z,6.00
2023-04-11T00:25:13.288Z,6.13
2023-04-11T00:27:41.970Z,7.83
2023-04-11T00:30:11.272Z,5.83
2023-04-11T00:32:39.817Z,5.80
2023-04-11T00:35:10.765Z,6.50
2023-04-11T00:37:44.362Z,6.83
2023-04-11T00:40:17.837Z,6.47
2023-04-11T00:42:46.521Z,6.40
2023-04-11T00:45:15.098Z,6.00
2023-04-11T00:47:44.057Z,6.17
2023-04-11T00:50:16.077Z,5.87
2023-04-11T00:52:48.481Z,5.97
2023-04-11T00:55:17.994Z,5.93
2023-04-11T00:57:47.156Z,6.23
2023-04-11T01:00:16.501Z,6.07
2023-04-11T01:02:45.361Z,5.47
2023-04-11T01:05:17.146Z,5.37
2023-04-11T01:07:49.924Z,5.83
2023-04-11T01:10:19.489Z,5.80
2023-04-11T01:12:48.470Z,5.50
2023-04-11T01:15:17.262Z,5.83
2023-04-11T01:17:48.239Z,5.83
2023-04-11T01:20:18.333Z,6.47
2023-04-11T01:22:49.408Z,5.83
2023-04-11T01:25:22.395Z,5.50
2023-04-11T01:27:51.205Z,6.40
2023-04-11T01:30:19.848Z,5.90
2023-04-11T01:32:50.781Z,6.00
2023-04-11T01:35:20.339Z,6.67
2023-04-11T01:37:49.897Z,6.27
2023-04-11T01:40:21.548Z,6.40
2023-04-11T01:42:54.180Z,6.87
2023-04-11T01:45:23.382Z,6.53
2023-04-11T01:47:54.737Z,6.40
2023-04-11T01:50:23.526Z,6.40
2023-04-11T01:52:53.196Z,5.97
2023-04-11T01:55:24.081Z,6.87
2023-04-11T01:57:52.628Z,6.27
2023-04-11T02:00:22.102Z,6.60
2023-04-11T02:02:50.793Z,6.60
2023-04-11T02:05:20.634Z,6.93
2023-04-11T02:07:49.169Z,7.17
2023-04-11T02:10:20.015Z,7.57
2023-04-11T02:12:50.018Z,6.73
2023-04-11T02:15:18.759Z,6.70
2023-04-11T02:17:47.432Z,6.63
2023-04-11T02:20:17.236Z,6.30
2023-04-11T02:22:46.631Z,7.10
2023-04-11T02:25:17.776Z,6.37
2023-04-11T02:27:46.400Z,7.50
2023-04-11T02:30:16.426Z,7.37
2023-04-11T02:32:46.794Z,7.30
2023-04-11T02:35:16.533Z,6.87
2023-04-11T02:37:45.696Z,7.30
2023-04-11T02:40:14.387Z,7.53
2023-04-11T02:42:43.444Z,7.07
2023-04-11T02:45:13.052Z,7.33
2023-04-11T02:47:43.063Z,7.20
2023-04-11T02:50:12.892Z,6.77
2023-04-11T02:52:49.500Z,6.60
2023-04-11T02:55:24.324Z,6.80
2023-04-11T02:57:53.696Z,7.00
2023-04-11T03:00:23.433Z,6.90
2023-04-11T03:03:01.005Z,6.50
2023-04-11T03:05:30.977Z,7.20
2023-04-11T03:07:59.579Z,6.60
2023-04-11T03:10:31.216Z,6.77
2023-04-11T03:13:01.692Z,6.57
2023-04-11T03:15:32.390Z,6.50
2023-04-11T03:18:07.198Z,6.23
2023-04-11T03:20:39.021Z,6.80
2023-04-11T03:23:09.339Z,6.03
2023-04-11T03:25:39.066Z,6.43
2023-04-11T03:28:07.956Z,5.87
2023-04-11T03:30:40.301Z,6.03
2023-04-11T03:33:11.671Z,6.60
2023-04-11T03:35:40.244Z,6.70
2023-04-11T03:38:08.940Z,5.93
2023-04-11T03:40:38.097Z,7.27
2023-04-11T03:43:21.523Z,6.77
2023-04-11T03:45:53.576Z,7.57
2023-04-11T03:48:36.359Z,6.33
2023-04-11T03:51:09.272Z,6.83
2023-04-11T03:53:47.762Z,6.30
2023-04-11T03:56:45.573Z,7.00
2023-04-11T03:59:21.506Z,6.30
2023-04-11T04:02:10.492Z,6.80
2023-04-11T04:04:48.889Z,6.40
2023-04-11T04:07:32.943Z,6.70
2023-04-11T04:10:11.398Z,7.40
2023-04-11T04:12:41.826Z,6.70
2023-04-11T04:15:15.517Z,6.83
2023-04-11T04:17:48.041Z,6.23
2023-04-11T04:20:28.711Z,6.83
2023-04-11T04:23:00.940Z,7.20
2023-04-11T04:25:42.344Z,7.43
2023-04-11T04:28:17.115Z,7.10
2023-04-11T04:30:50.237Z,7.43
2023-04-11T04:33:18.971Z,8.20
2023-04-11T04:35:52.764Z,7.67
2023-04-11T04:38:21.585Z,7.33
2023-04-11T04:40:54.920Z,7.30
2023-04-11T04:43:27.437Z,7.50
2023-04-11T04:46:00.550Z,7.10
2023-04-11T04:48:37.875Z,7.23
2023-04-11T04:51:09.135Z,6.97
2023-04-11T04:53:39.031Z,6.80
2023-04-11T04:56:10.731Z,7.13
2023-04-11T04:58:42.562Z,8.00
2023-04-11T05:01:14.456Z,7.23
2023-04-11T05:03:46.965Z,7.33
2023-04-11T05:06:24.890Z,7.97
2023-04-11T05:08:56.441Z,7.10
2023-04-11T05:11:25.320Z,6.93
2023-04-11T05:13:54.270Z,7.20
2023-04-11T05:16:23.169Z,6.80
2023-04-11T05:18:51.799Z,6.60
2023-04-11T05:21:20.470Z,7.03
2023-04-11T05:23:54.288Z,6.37
2023-04-11T05:26:23.300Z,6.37
2023-04-11T05:28:52.596Z,6.07
2023-04-11T05:31:25.896Z,6.40
2023-04-11T05:33:55.909Z,6.50
2023-04-11T05:36:25.942Z,7.10
2023-04-11T05:38:56.785Z,7.63
2023-04-11T05:41:25.634Z,7.20
2023-04-11T05:43:54.740Z,7.03
2023-04-11T05:46:23.519Z,7.43
2023-04-11T05:48:52.265Z,6.53
2023-04-11T05:51:21.133Z,6.60
2023-04-11T05:53:49.646Z,6.57
2023-04-11T05:56:19.845Z,7.60
2023-04-11T05:58:48.515Z,7.27
2023-04-11T06:01:19.721Z,7.43
2023-04-11T06:03:48.804Z,8.20
2023-04-11T06:06:17.894Z,8.23
2023-04-11T06:08:46.653Z,9.73
2023-04-11T06:11:15.269Z,8.47
2023-04-11T06:13:45.344Z,8.37
2023-04-11T06:16:14.027Z,8.13
2023-04-11T06:18:43.763Z,9.17
2023-04-11T06:21:12.566Z,8.77
2023-04-11T06:23:41.174Z,8.33
2023-04-11T06:26:11.282Z,10.90
2023-04-11T06:28:40.038Z,8.53
2023-04-11T06:31:11.698Z,7.90
2023-04-11T06:33:41.655Z,9.30
2023-04-11T06:36:13.340Z,9.00
2023-04-11T06:38:42.585Z,9.87
2023-04-11T06:41:11.163Z,10.17
2023-04-11T06:43:39.750Z,10.33
2023-04-11T06:46:09.337Z,9.30
2023-04-11T06:48:39.349Z,9.00
2023-04-11T06:51:09.280Z,10.57
2023-04-11T06:53:37.979Z,10.43
2023-04-11T06:56:07.274Z,10.90
2023-04-11T06:58:36.863Z,9.50
2023-04-11T07:01:06.113Z,9.60
2023-04-11T07:03:35.039Z,10.67
2023-04-11T07:06:05.577Z,10.33
2023-04-11T07:08:34.477Z,10.33
2023-04-11T07:11:03.093Z,10.13
2023-04-11T07:13:32.041Z,10.27
2023-04-11T07:16:00.693Z,9.93
2023-04-11T07:18:29.318Z,9.93
2023-04-11T07:20:57.865Z,9.97
2023-04-11T07:23:30.491Z,9.87
2023-04-11T07:25:59.157Z,10.47
2023-04-11T07:28:28.993Z,11.70
2023-04-11T07:30:57.937Z,11.33
2023-04-11T07:33:26.572Z,11.13
2023-04-11T07:35:55.186Z,11.33
2023-04-11T07:38:29.688Z,11.03
2023-04-11T07:41:01.726Z,10.97
2023-04-11T07:43:31.454Z,11.20
2023-04-11T07:46:00.895Z,10.80
2023-04-11T07:48:31.596Z,10.73
2023-04-11T07:51:00.225Z,10.70
2023-04-11T07:53:31.056Z,11.47
2023-04-11T07:56:01.110Z,11.03
2023-04-11T07:58:30.306Z,10.47
2023-04-11T08:00:59.430Z,11.10
2023-04-11T08:03:28.413Z,11.33
2023-04-11T08:05:57.272Z,9.87
2023-04-11T08:08:26.104Z,10.37
2023-04-11T08:10:54.729Z,10.33
2023-04-11T08:13:24.615Z,10.30
2023-04-11T08:15:53.199Z,10.07
2023-04-11T08:18:23.373Z,9.60
2023-04-11T08:20:52.032Z,9.03
2023-04-11T08:23:20.717Z,10.63
2023-04-11T08:25:49.408Z,9.97
2023-04-11T08:28:18.351Z,9.77
2023-04-11T08:30:48.388Z,10.33
2023-04-11T08:33:17.104Z,10.33
2023-04-11T08:35:45.764Z,11.47
2023-04-11T08:38:14.468Z,10.53
2023-04-11T08:40:42.986Z,9.60
2023-04-11T08:43:13.187Z,10.77
2023-04-11T08:45:41.964Z,10.07
2023-04-11T08:48:12.616Z,10.23
2023-04-11T08:50:42.468Z,10.20
2023-04-11T08:53:11.185Z,9.87
2023-04-11T08:55:47.842Z,8.20
2023-04-11T08:58:16.812Z,7.90
2023-04-11T09:00:45.564Z,7.17
2023-04-11T09:03:17.383Z,6.40
2023-04-11T09:05:47.213Z,6.30
2023-04-11T09:08:16.721Z,6.07
2023-04-11T09:10:46.711Z,6.13
2023-04-11T09:13:22.077Z,6.57
2023-04-11T09:16:06.227Z,6.77
2023-04-11T09:18:37.514Z,5.60
2023-04-11T09:21:07.729Z,6.27
2023-04-11T09:23:36.512Z,5.83
2023-04-11T09:26:07.162Z,6.20
2023-04-11T09:28:43.377Z,6.00
2023-04-11T09:31:13.932Z,5.83
2023-04-11T09:33:54.821Z,5.63
2023-04-11T09:36:25.426Z,5.40
2023-04-11T09:38:54.273Z,5.63
2023-04-11T09:41:32.350Z,5.70
2023-04-11T09:44:01.539Z,5.73
2023-04-11T09:46:30.204Z,6.10
2023-04-11T09:49:01.799Z,4.90
2023-04-11T09:51:36.548Z,4.80
2023-04-11T09:54:06.570Z,5.23
2023-04-11T09:56:35.645Z,5.27
2023-04-11T09:59:05.668Z,5.37
2023-04-11T10:01:34.547Z,5.33
2023-04-11T10:04:04.965Z,5.43
2023-04-11T10:06:46.951Z,5.53
2023-04-11T10:09:16.906Z,5.47
2023-04-11T10:11:46.687Z,7.67
2023-04-11T10:14:45.758Z,5.93
2023-04-11T10:17:20.533Z,5.53
2023-04-11T10:19:56.688Z,5.47
2023-04-11T10:23:00.115Z,5.37
2023-04-11T10:25:49.707Z,5.53
2023-04-11T10:28:32.929Z,5.50
2023-04-11T10:31:09.314Z,5.30
2023-04-11T10:33:39.913Z,5.47
2023-04-11T10:36:12.499Z,5.43
2023-04-11T10:38:52.535Z,5.07
2023-04-11T10:41:29.008Z,5.70
2023-04-11T10:44:15.955Z,5.57
2023-04-11T10:46:49.451Z,5.80
2023-04-11T10:49:38.605Z,5.90
2023-04-11T10:52:24.939Z,6.10
2023-04-11T10:54:54.686Z,5.20
2023-04-11T10:57:23.985Z,5.37
2023-04-11T11:00:02.462Z,5.80
2023-04-11T11:02:39.764Z,5.10
2023-04-11T11:05:22.615Z,5.97
2023-04-11T11:07:54.747Z,6.80
2023-04-11T11:10:40.171Z,6.40
2023-04-11T11:13:10.562Z,6.40
2023-04-11T11:15:39.958Z,6.90
2023-04-11T11:18:10.635Z,7.17
2023-04-11T11:20:39.273Z,7.10
2023-04-11T11:23:11.629Z,6.70
2023-04-11T11:25:40.268Z,6.50
2023-04-11T11:28:10.309Z,6.60
2023-04-11T11:30:39.215Z,5.90
2023-04-11T11:33:26.710Z,6.77
2023-04-11T11:35:58.502Z,6.03
2023-04-11T11:38:30.329Z,5.90
2023-04-11T11:41:00.249Z,4.93
2023-04-11T11:43:29.172Z,4.87
2023-04-11T11:46:15.387Z,4.73
2023-04-11T11:48:45.256Z,5.43
2023-04-11T11:51:14.279Z,5.93
2023-04-11T11:53:44.347Z,5.70
2023-04-11T11:56:17.142Z,6.13
2023-04-11T11:58:46.390Z,5.57
2023-04-11T12:01:19.530Z,6.17
2023-04-11T12:03:51.750Z,5.43
2023-04-11T12:06:20.881Z,5.50
2023-04-11T12:08:54.004Z,5.67
2023-04-11T12:11:25.490Z,5.97
2023-04-11T12:13:55.112Z,5.63
2023-04-11T12:16:24.720Z,6.50
2023-04-11T12:18:53.433Z,6.43
2023-04-11T12:21:22.105Z,6.00
2023-04-11T12:23:52.067Z,6.23
2023-04-11T12:26:21.852Z,6.50
2023-04-11T12:28:50.727Z,6.17
2023-04-11T12:31:20.183Z,6.27
2023-04-11T12:33:48.890Z,6.57
2023-04-11T12:36:17.404Z,6.63
2023-04-11T12:38:45.888Z,7.07
2023-04-11T12:41:31.681Z,6.53
2023-04-11T12:44:02.582Z,6.70
2023-04-11T12:46:31.279Z,6.70
2023-04-11T12:48:59.856Z,7.00
2023-04-11T12:51:28.717Z,7.47
2023-04-11T12:53:57.328Z,6.37
2023-04-11T12:56:27.357Z,6.93
2023-04-11T12:58:56.209Z,6.40
2023-04-11T13:01:24.975Z,6.47
2023-04-11T13:03:53.599Z,6.47
2023-04-11T13:06:23.471Z,6.47
2023-04-11T13:08:51.972Z,6.87
2023-04-11T13:11:20.479Z,6.80
2023-04-11T13:13:50.765Z,6.57
2023-04-11T13:16:19.375Z,6.70
2023-04-11T13:18:47.976Z,7.10
2023-04-11T13:21:16.848Z,6.40
2023-04-11T13:23:46.812Z,7.40
2023-04-11T13:26:15.487Z,6.83
2023-04-11T13:28:44.099Z,6.70
2023-04-11T13:31:14.358Z,7.07
2023-04-11T13:33:45.014Z,6.33
2023-04-11T13:36:13.686Z,6.30
2023-04-11T13:38:42.397Z,13.07
2023-04-11T13:41:12.186Z,8.23
2023-04-11T13:43:41.772Z,7.20
2023-04-11T13:46:10.362Z,5.63
2023-04-11T13:48:40.322Z,6.47
2023-04-11T13:51:09.531Z,6.67
2023-04-11T13:53:38.145Z,5.67
2023-04-11T13:56:08.159Z,5.33
2023-04-11T13:58:38.233Z,6.90
2023-04-11T14:01:07.459Z,5.90
2023-04-11T14:03:36.132Z,5.77
2023-04-11T14:06:09.026Z,5.60
2023-04-11T14:08:38.277Z,6.20
2023-04-11T14:11:07.250Z,5.63
2023-04-11T14:13:35.838Z,5.83
2023-04-11T14:16:09.206Z,6.50
2023-04-11T14:18:38.378Z,5.77
2023-04-11T14:21:08.993Z,5.90
2023-04-11T14:23:37.778Z,5.83
2023-04-11T14:26:07.124Z,5.50
2023-04-11T14:28:38.231Z,5.87
2023-04-11T14:31:07.435Z,5.60
2023-04-11T14:33:36.095Z,5.53
2023-04-11T14:36:04.734Z,5.47
2023-04-11T14:38:34.848Z,5.53
2023-04-11T14:41:03.401Z,5.70
2023-04-11T14:43:31.968Z,5.07
2023-04-11T14:46:00.490Z,5.27
2023-04-11T14:48:29.353Z,5.10
2023-04-11T14:50:57.982Z,5.13
2023-04-11T14:53:26.714Z,5.20
2023-04-11T14:55:56.736Z,4.80
2023-04-11T14:58:25.498Z,5.10
2023-04-11T15:00:54.046Z,5.40
2023-04-11T15:03:22.892Z,5.07
2023-04-11T15:05:51.700Z,5.00
2023-04-11T15:08:21.206Z,5.20
2023-04-11T15:10:54.361Z,4.83
2023-04-11T15:13:25.387Z,4.97
2023-04-11T15:15:54.623Z,5.43
2023-04-11T15:18:25.452Z,4.83
2023-04-11T15:20:54.210Z,5.13
2023-04-11T15:23:23.308Z,4.97
2023-04-11T15:25:55.664Z,5.40
2023-04-11T15:28:26.855Z,5.00
2023-04-11T15:30:56.075Z,5.37
2023-04-11T15:33:24.708Z,5.10
2023-04-11T15:35:54.861Z,5.50
2023-04-11T15:38:23.669Z,5.53
2023-04-11T15:40:52.695Z,5.67
2023-04-11T15:43:21.773Z,5.17
2023-04-11T15:45:52.459Z,5.57
2023-04-11T15:48:21.065Z,5.40
2023-04-11T15:50:50.983Z,6.37
2023-04-11T15:53:19.630Z,5.60
2023-04-11T15:55:49.209Z,5.50
2023-04-11T15:58:17.773Z,5.30
2023-04-11T16:00:47.078Z,5.43
2023-04-11T16:03:18.200Z,5.10
2023-04-11T16:05:50.919Z,5.03
2023-04-11T16:08:19.418Z,5.27
2023-04-11T16:10:47.953Z,5.80
2023-04-11T16:13:16.541Z,6.40
2023-04-11T16:15:45.117Z,6.80
2023-04-11T16:18:13.786Z,5.70
2023-04-11T16:20:43.819Z,5.83
2023-04-11T16:23:12.435Z,5.70
2023-04-11T16:25:41.475Z,6.73
2023-04-11T16:28:10.034Z,6.47
2023-04-11T16:30:38.632Z,5.43
2023-04-11T16:33:07.535Z,6.03
2023-04-11T16:35:36.287Z,5.57
2023-04-11T16:38:06.322Z,6.17
2023-04-11T16:40:35.408Z,6.60
2023-04-11T16:43:03.949Z,6.03
2023-04-11T16:45:34.277Z,5.57
2023-04-11T16:48:03.492Z,5.53
2023-04-11T16:50:32.226Z,6.47
2023-04-11T16:53:00.922Z,5.83
2023-04-11T16:55:30.994Z,5.87
2023-04-11T16:57:59.570Z,5.23
2023-04-11T17:00:29.483Z,5.90
2023-04-11T17:02:58.867Z,6.10
2023-04-11T17:05:27.594Z,6.13
2023-04-11T17:07:56.079Z,6.07
2023-04-11T17:10:24.574Z,6.17
2023-04-11T17:12:54.772Z,6.47
2023-04-11T17:15:23.482Z,6.33
2023-04-11T17:17:52.057Z,6.40
2023-04-11T17:20:22.156Z,6.40
2023-04-11T17:22:50.871Z,6.53
2023-04-11T17:25:19.406Z,7.43
2023-04-11T17:27:47.913Z,7.37
2023-04-11T17:30:18.312Z,6.87
2023-04-11T17:32:49.153Z,7.00
2023-04-11T17:35:17.744Z,7.40
2023-04-11T17:37:46.460Z,7.50
2023-04-11T17:40:15.497Z,7.80
2023-04-11T17:42:45.965Z,7.43
2023-04-11T17:45:18.189Z,9.33
2023-04-11T17:47:48.855Z,7.77
2023-04-11T17:50:18.333Z,8.00
2023-04-11T17:52:47.600Z,8.43
2023-04-11T17:55:17.567Z,7.80
2023-04-11T17:57:47.429Z,8.43
2023-04-11T18:00:19.606Z,8.40
2023-04-11T18:02:54.707Z,8.63
2023-04-11T18:05:26.280Z,10.07
2023-04-11T18:07:57.427Z,10.07
2023-04-11T18:10:27.696Z,9.23
2023-04-11T18:12:56.978Z,10.73
2023-04-11T18:15:27.014Z,10.80
2023-04-11T18:17:56.990Z,11.17
2023-04-11T18:20:25.732Z,10.83
2023-04-11T18:22:56.370Z,10.77
2023-04-11T18:25:25.464Z,10.50
2023-04-11T18:27:54.088Z,11.80
2023-04-11T18:30:23.604Z,11.40
2023-04-11T18:32:54.031Z,11.27
2023-04-11T18:35:25.337Z,10.33
2023-04-11T18:37:56.348Z,11.50
2023-04-11T18:40:25.005Z,11.20
2023-04-11T18:42:55.464Z,9.90
2023-04-11T18:45:25.334Z,10.27
2023-04-11T18:47:54.659Z,8.73
2023-04-11T18:50:24.828Z,9.40
2023-04-11T18:52:55.952Z,10.70
2023-04-11T18:55:26.034Z,11.17
2023-04-11T18:57:58.501Z,10.80
2023-04-11T19:00:31.406Z,11.07
2023-04-11T19:03:00.143Z,10.83
2023-04-11T19:05:30.786Z,10.77
2023-04-11T19:08:00.996Z,10.53
2023-04-11T19:10:30.196Z,10.93
2023-04-11T19:12:58.785Z,9.67
2023-04-11T19:15:27.445Z,10.07
2023-04-11T19:17:56.201Z,24.43
2023-04-11T19:20:26.702Z,10.80
2023-04-11T19:22:56.681Z,11.53
2023-04-11T19:25:25.382Z,10.67
2023-04-11T19:27:53.903Z,11.07
2023-04-11T19:30:22.568Z,11.20
2023-04-11T19:32:51.292Z,10.47
2023-04-11T19:35:24.275Z,15.60
2023-04-11T19:37:54.499Z,12.20
2023-04-11T19:40:25.081Z,12.87
2023-04-11T19:42:53.735Z,14.40
2023-04-11T19:45:22.302Z,13.67
2023-04-11T19:47:51.038Z,12.97
2023-04-11T19:50:19.692Z,12.30
2023-04-11T19:52:48.325Z,12.60
2023-04-11T19:55:16.875Z,13.77
2023-04-11T19:57:46.845Z,12.50
2023-04-11T20:00:17.481Z,20.17
2023-04-11T20:02:48.263Z,12.73
2023-04-11T20:05:18.452Z,12.60
2023-04-11T20:07:47.951Z,16.13
2023-04-11T20:10:17.620Z,13.20
2023-04-11T20:12:47.689Z,14.63
2023-04-11T20:15:16.263Z,13.30
2023-04-11T20:17:46.218Z,14.33
2023-04-11T20:20:15.798Z,12.90
2023-04-11T20:22:45.925Z,13.27
2023-04-11T20:25:14.727Z,13.67
2023-04-11T20:27:44.166Z,12.03
2023-04-11T20:30:16.710Z,11.57
2023-04-11T20:32:45.799Z,11.87
2023-04-11T20:35:14.550Z,11.70
2023-04-11T20:37:44.692Z,11.50
2023-04-11T20:40:14.450Z,15.73
2023-04-11T20:42:45.545Z,18.73
2023-04-11T20:45:17.156Z,31.27
2023-04-11T20:47:47.786Z,21.60
2023-04-11T20:50:17.864Z,15.63
2023-04-11T20:52:50.632Z,14.17
2023-04-11T20:55:20.928Z,14.23
2023-04-11T20:57:49.793Z,12.13
2023-04-11T21:00:21.068Z,13.00
2023-04-11T21:02:51.983Z,11.77
2023-04-11T21:05:22.106Z,13.57
2023-04-11T21:07:50.667Z,12.40
2023-04-11T21:10:21.096Z,11.70
2023-04-11T21:12:51.839Z,11.43
2023-04-11T21:15:22.823Z,11.43
2023-04-11T21:17:52.396Z,12.37
2023-04-11T21:20:22.616Z,12.53
2023-04-11T21:22:53.832Z,11.40
2023-04-11T21:25:23.247Z,11.40
2023-04-11T21:27:51.803Z,10.80
2023-04-11T21:30:21.882Z,11.43
2023-04-11T21:32:50.405Z,11.30
2023-04-11T21:35:18.996Z,10.77
2023-04-11T21:37:49.239Z,9.97
2023-04-11T21:40:18.796Z,10.60
2023-04-11T21:42:47.366Z,10.30
2023-04-11T21:45:16.843Z,11.37
2023-04-11T21:47:46.881Z,10.90
2023-04-11T21:50:15.684Z,11.93
2023-04-11T21:52:44.700Z,11.27
2023-04-11T21:55:13.948Z,10.30
2023-04-11T21:57:42.676Z,11.10
2023-04-11T22:00:12.525Z,11.77
2023-04-11T22:02:41.995Z,10.10
2023-04-11T22:05:12.841Z,9.47
2023-04-11T22:07:48.615Z,10.43
2023-04-11T22:10:23.988Z,10.13
2023-04-11T22:12:54.697Z,10.63
2023-04-11T22:15:24.344Z,9.53
2023-04-11T22:17:56.536Z,10.57
2023-04-11T22:20:26.773Z,12.10
2023-04-11T22:22:56.877Z,10.07
2023-04-11T22:25:25.576Z,10.07
2023-04-11T22:27:54.927Z,9.67
2023-04-11T22:30:25.002Z,9.53
2023-04-11T22:32:54.568Z,9.60
2023-04-11T22:35:25.060Z,9.93
2023-04-11T22:37:57.351Z,10.60
2023-04-11T22:40:26.022Z,9.87
2023-04-11T22:42:55.255Z,9.40
2023-04-11T22:45:24.597Z,8.63
2023-04-11T22:47:55.749Z,9.10
2023-04-11T22:50:24.483Z,10.70
2023-04-11T22:52:54.959Z,9.03
2023-04-11T22:55:24.895Z,7.97
2023-04-11T22:57:53.508Z,8.67
2023-04-11T23:00:24.221Z,9.70
2023-04-11T23:02:52.952Z,9.47
2023-04-11T23:05:21.442Z,8.93
2023-04-11T23:07:50.068Z,9.23
2023-04-11T23:10:20.486Z,9.17
2023-04-11T23:12:49.635Z,8.53
2023-04-11T23:15:19.361Z,8.37
2023-04-11T23:17:47.953Z,10.03
2023-04-11T23:20:17.785Z,9.00
2023-04-11T23:22:46.463Z,9.97
2023-04-11T23:25:15.465Z,9.30
2023-04-11T23:27:46.022Z,9.10
2023-04-11T23:30:17.832Z,8.33
2023-04-11T23:32:47.250Z,8.07
2023-04-11T23:35:17.199Z,8.93
2023-04-11T23:37:46.104Z,8.87
2023-04-11T23:40:15.006Z,7.63
2023-04-11T23:42:45.300Z,8.37
2023-04-11T23:45:15.150Z,8.50
2023-04-11T23:47:43.806Z,8.10
2023-04-11T23:50:13.757Z,8.53
2023-04-11T23:52:42.899Z,7.60
2023-04-11T23:55:12.411Z,7.63
2023-04-11T23:57:41.084Z,8.20
